OIMB  Birjand  Airport

Birjand, Iran

Add Bookmark
ICAO OIMB
Type Airport
Status Operational
Latitude
32° 53' 53" N
32.898102
Longitude
59° 15' 57" E
59.266102
Local (GMT +3.5 ) UTC
Sep 28, 2016 05:07 pm Sep 28, 2016 13:37
Sunrise-Sunset Local UTC
Begin Civil Twilight 04:59 am 01:29
Sunrise 05:24 am 01:54
Sunset 05:22 pm 13:52
End Civil Twilight 05:47 pm 14:17
VFR
VFR
MVFR
MVFR
IFR
IFR
LIFR
LIFR
Unknown
Unavailable

Current Weather

METAR Observed VFR
OIMB 281300Z 33010KT CAVOK 31/M13 Q1017 Wed, Sep 28, 2016 @ 13:00 UTC
(37 Minutes ago)
Visual Flight Rules
Wind Visibility Conditions
330° at 10 knots (19 kph) 10 km or more
  • No significant weather
Temperatures Readings Precipitation
Current Temp
31°C
88°F
Dewpoint
-13°C
9°F
Humidity 5%
Altimeter 30.03" Hg
Sea Level Pressure 1,017 mb
Field Elevation
1,491 m
4,892 ft
None Recorded
-
-

CheckWX.com is intended as a tool to help pilots better visualize weather data. It is not intended as a substitute for an official weather briefing obtained from a Flight Service Station. CheckWX.com does not meet the FAA requirements for an official pre-flight weather briefing. Therefore, it's important that pilots still call and obtain an official FSS pre-flight weather briefing.

© 2007-2016 CheckWX.com
13:37:23 UTC